sensor_id;sensor_type;location;lat;lon;timestamp;pressure;altitude;pressure_sealevel;temperature;humidity
54389;BME280;40975;50.390;8.640;2023-04-27T00:01:05;99304.84;;;3.88;100.00
54389;BME280;40975;50.390;8.640;2023-04-27T00:03:31;99296.97;;;3.88;100.00
54389;BME280;40975;50.390;8.640;2023-04-27T00:05:56;99298.69;;;3.74;100.00
54389;BME280;40975;50.390;8.640;2023-04-27T00:08:21;99297.63;;;3.64;100.00
54389;BME280;40975;50.390;8.640;2023-04-27T00:10:47;99297.88;;;3.60;100.00
54389;BME280;40975;50.390;8.640;2023-04-27T00:13:12;99295.00;;;3.64;100.00
54389;BME280;40975;50.390;8.640;2023-04-27T00:15:37;99297.50;;;3.66;100.00
54389;BME280;40975;50.390;8.640;2023-04-27T00:18:03;99297.06;;;3.59;100.00
54389;BME280;40975;50.390;8.640;2023-04-27T00:20:28;99292.63;;;3.60;100.00
54389;BME280;40975;50.390;8.640;2023-04-27T00:22:53;99285.91;;;3.55;100.00
54389;BME280;40975;50.390;8.640;2023-04-27T00:25:19;99278.97;;;3.54;100.00
54389;BME280;40975;50.390;8.640;2023-04-27T00:27:44;99280.31;;;3.47;100.00
54389;BME280;40975;50.390;8.640;2023-04-27T00:30:09;99281.25;;;3.46;100.00
54389;BME280;40975;50.390;8.640;2023-04-27T00:32:35;99268.59;;;3.38;100.00
54389;BME280;40975;50.390;8.640;2023-04-27T00:35:00;99271.06;;;3.27;100.00
54389;BME280;40975;50.390;8.640;2023-04-27T00:37:25;99272.50;;;3.18;100.00
54389;BME280;40975;50.390;8.640;2023-04-27T00:39:51;99268.94;;;3.19;100.00
54389;BME280;40975;50.390;8.640;2023-04-27T00:42:16;99268.25;;;3.16;100.00
54389;BME280;40975;50.390;8.640;2023-04-27T00:44:45;99266.22;;;3.06;100.00
54389;BME280;40975;50.390;8.640;2023-04-27T00:47:11;99273.72;;;2.98;100.00
54389;BME280;40975;50.390;8.640;2023-04-27T00:49:36;99268.66;;;2.80;100.00
54389;BME280;40975;50.390;8.640;2023-04-27T00:52:02;99275.59;;;2.82;100.00
54389;BME280;40975;50.390;8.640;2023-04-27T00:54:28;99272.22;;;2.79;100.00
54389;BME280;40975;50.390;8.640;2023-04-27T00:56:53;99271.75;;;2.73;100.00
54389;BME280;40975;50.390;8.640;2023-04-27T00:59:20;99281.69;;;2.68;100.00
54389;BME280;40975;50.390;8.640;2023-04-27T01:01:46;99284.94;;;2.57;100.00
54389;BME280;40975;50.390;8.640;2023-04-27T01:04:11;99280.72;;;2.54;100.00
54389;BME280;40975;50.390;8.640;2023-04-27T01:06:37;99270.13;;;2.41;100.00
54389;BME280;40975;50.390;8.640;2023-04-27T01:09:03;99277.81;;;2.44;100.00
54389;BME280;40975;50.390;8.640;2023-04-27T01:11:29;99275.72;;;2.35;100.00
54389;BME280;40975;50.390;8.640;2023-04-27T01:13:55;99285.81;;;2.27;100.00
54389;BME280;40975;50.390;8.640;2023-04-27T01:16:21;99285.72;;;2.28;100.00
54389;BME280;40975;50.390;8.640;2023-04-27T01:18:46;99293.09;;;2.22;100.00
54389;BME280;40975;50.390;8.640;2023-04-27T01:21:12;99286.00;;;2.24;100.00
54389;BME280;40975;50.390;8.640;2023-04-27T01:23:37;99289.72;;;2.20;100.00
54389;BME280;40975;50.390;8.640;2023-04-27T01:26:03;99284.00;;;2.13;100.00
54389;BME280;40975;50.390;8.640;2023-04-27T01:28:28;99284.75;;;2.15;100.00
54389;BME280;40975;50.390;8.640;2023-04-27T01:30:54;99277.06;;;2.12;100.00
54389;BME280;40975;50.390;8.640;2023-04-27T01:33:19;99284.75;;;2.15;100.00
54389;BME280;40975;50.390;8.640;2023-04-27T01:35:46;99286.44;;;2.16;100.00
54389;BME280;40975;50.390;8.640;2023-04-27T01:38:12;99285.19;;;2.07;100.00
54389;BME280;40975;50.390;8.640;2023-04-27T01:40:37;99286.06;;;2.08;100.00
54389;BME280;40975;50.390;8.640;2023-04-27T01:43:03;99293.97;;;2.06;100.00
54389;BME280;40975;50.390;8.640;2023-04-27T01:45:28;99298.88;;;2.12;100.00
54389;BME280;40975;50.390;8.640;2023-04-27T01:47:53;99294.63;;;2.10;100.00
54389;BME280;40975;50.390;8.640;2023-04-27T01:50:19;99292.78;;;2.12;100.00
54389;BME280;40975;50.390;8.640;2023-04-27T01:52:44;99297.94;;;2.13;100.00
54389;BME280;40975;50.390;8.640;2023-04-27T01:55:10;99299.81;;;2.11;100.00
54389;BME280;40975;50.390;8.640;2023-04-27T01:57:36;99306.91;;;2.09;100.00
54389;BME280;40975;50.390;8.640;2023-04-27T02:00:02;99308.31;;;2.15;100.00
54389;BME280;40975;50.390;8.640;2023-04-27T02:02:45;99308.72;;;2.23;100.00
54389;BME280;40975;50.390;8.640;2023-04-27T02:05:11;99304.78;;;2.30;100.00
54389;BME280;40975;50.390;8.640;2023-04-27T02:07:36;99302.88;;;2.34;100.00
54389;BME280;40975;50.390;8.640;2023-04-27T02:10:02;99304.34;;;2.38;100.00
54389;BME280;40975;50.390;8.640;2023-04-27T02:12:27;99304.09;;;2.43;100.00
54389;BME280;40975;50.390;8.640;2023-04-27T02:14:53;99306.06;;;2.39;100.00
54389;BME280;40975;50.390;8.640;2023-04-27T02:17:18;99315.44;;;2.43;100.00
54389;BME280;40975;50.390;8.640;2023-04-27T02:19:44;99313.81;;;2.41;100.00
54389;BME280;40975;50.390;8.640;2023-04-27T02:22:09;99315.59;;;2.40;100.00
54389;BME280;40975;50.390;8.640;2023-04-27T02:24:35;99308.84;;;2.36;100.00
54389;BME280;40975;50.390;8.640;2023-04-27T02:27:00;99315.09;;;2.33;100.00
54389;BME280;40975;50.390;8.640;2023-04-27T02:29:29;99319.16;;;2.39;100.00
54389;BME280;40975;50.390;8.640;2023-04-27T02:31:54;99325.41;;;2.37;100.00
54389;BME280;40975;50.390;8.640;2023-04-27T02:34:20;99319.81;;;2.43;100.00
54389;BME280;40975;50.390;8.640;2023-04-27T02:36:45;99320.56;;;2.45;100.00
54389;BME280;40975;50.390;8.640;2023-04-27T02:39:10;99323.84;;;2.48;100.00
54389;BME280;40975;50.390;8.640;2023-04-27T02:41:36;99333.56;;;2.46;100.00
54389;BME280;40975;50.390;8.640;2023-04-27T02:44:02;99330.69;;;2.51;100.00
54389;BME280;40975;50.390;8.640;2023-04-27T02:46:29;99323.31;;;2.58;100.00
54389;BME280;40975;50.390;8.640;2023-04-27T02:48:55;99327.34;;;2.63;100.00
54389;BME280;40975;50.390;8.640;2023-04-27T02:51:22;99317.88;;;2.61;100.00
54389;BME280;40975;50.390;8.640;2023-04-27T02:53:47;99322.69;;;2.69;100.00
54389;BME280;40975;50.390;8.640;2023-04-27T02:56:12;99327.34;;;2.63;100.00
54389;BME280;40975;50.390;8.640;2023-04-27T02:58:38;99320.88;;;2.69;100.00
54389;BME280;40975;50.390;8.640;2023-04-27T03:01:03;99325.19;;;2.70;100.00
54389;BME280;40975;50.390;8.640;2023-04-27T03:03:28;99321.81;;;2.68;100.00
54389;BME280;40975;50.390;8.640;2023-04-27T03:05:54;99325.38;;;2.67;100.00
54389;BME280;40975;50.390;8.640;2023-04-27T03:08:19;99323.50;;;2.69;100.00
54389;BME280;40975;50.390;8.640;2023-04-27T03:10:44;99319.09;;;2.70;100.00
54389;BME280;40975;50.390;8.640;2023-04-27T03:13:10;99328.38;;;2.61;100.00
54389;BME280;40975;50.390;8.640;2023-04-27T03:15:35;99321.44;;;2.60;100.00
54389;BME280;40975;50.390;8.640;2023-04-27T03:18:00;99318.91;;;2.58;100.00
54389;BME280;40975;50.390;8.640;2023-04-27T03:20:26;99321.06;;;2.52;100.00
54389;BME280;40975;50.390;8.640;2023-04-27T03:22:52;99319.25;;;2.52;100.00
54389;BME280;40975;50.390;8.640;2023-04-27T03:25:17;99316.09;;;2.47;100.00
54389;BME280;40975;50.390;8.640;2023-04-27T03:27:43;99314.22;;;2.49;100.00
54389;BME280;40975;50.390;8.640;2023-04-27T03:30:10;99308.00;;;2.36;100.00
54389;BME280;40975;50.390;8.640;2023-04-27T03:32:36;99315.88;;;2.36;100.00
54389;BME280;40975;50.390;8.640;2023-04-27T03:35:01;99305.94;;;2.26;100.00
54389;BME280;40975;50.390;8.640;2023-04-27T03:37:27;99311.59;;;2.18;100.00
54389;BME280;40975;50.390;8.640;2023-04-27T03:39:52;99311.19;;;2.10;100.00
54389;BME280;40975;50.390;8.640;2023-04-27T03:42:18;99310.59;;;2.05;100.00
54389;BME280;40975;50.390;8.640;2023-04-27T03:44:43;99303.28;;;1.96;100.00
54389;BME280;40975;50.390;8.640;2023-04-27T03:47:08;99306.53;;;1.85;100.00
54389;BME280;40975;50.390;8.640;2023-04-27T03:49:37;99311.09;;;1.81;100.00
54389;BME280;40975;50.390;8.640;2023-04-27T03:52:02;99307.03;;;1.76;100.00
54389;BME280;40975;50.390;8.640;2023-04-27T03:54:29;99307.72;;;1.63;100.00
54389;BME280;40975;50.390;8.640;2023-04-27T03:56:55;99311.44;;;1.59;100.00
54389;BME280;40975;50.390;8.640;2023-04-27T03:59:20;99314.88;;;1.60;100.00
54389;BME280;40975;50.390;8.640;2023-04-27T04:01:48;99315.31;;;1.68;100.00
54389;BME280;40975;50.390;8.640;2023-04-27T04:04:13;99317.41;;;1.61;100.00
54389;BME280;40975;50.390;8.640;2023-04-27T04:06:40;99315.47;;;1.65;100.00
54389;BME280;40975;50.390;8.640;2023-04-27T04:09:06;99322.59;;;1.63;100.00
54389;BME280;40975;50.390;8.640;2023-04-27T04:11:31;99319.97;;;1.63;100.00
54389;BME280;40975;50.390;8.640;2023-04-27T04:13:58;99329.91;;;1.72;100.00
54389;BME280;40975;50.390;8.640;2023-04-27T04:16:23;99339.22;;;1.78;100.00
54389;BME280;40975;50.390;8.640;2023-04-27T04:18:51;99341.88;;;1.76;100.00
54389;BME280;40975;50.390;8.640;2023-04-27T04:21:16;99329.25;;;1.84;100.00
54389;BME280;40975;50.390;8.640;2023-04-27T04:23:42;99326.78;;;1.81;100.00
54389;BME280;40975;50.390;8.640;2023-04-27T04:26:07;99338.59;;;1.89;100.00
54389;BME280;40975;50.390;8.640;2023-04-27T04:28:35;99333.88;;;1.95;100.00
54389;BME280;40975;50.390;8.640;2023-04-27T04:31:01;99333.75;;;1.97;100.00
54389;BME280;40975;50.390;8.640;2023-04-27T04:33:28;99325.38;;;2.06;100.00
54389;BME280;40975;50.390;8.640;2023-04-27T04:35:54;99331.38;;;2.08;100.00
54389;BME280;40975;50.390;8.640;2023-04-27T04:38:19;99328.66;;;2.10;100.00
54389;BME280;40975;50.390;8.640;2023-04-27T04:40:45;99330.47;;;2.09;100.00
54389;BME280;40975;50.390;8.640;2023-04-27T04:43:10;99334.09;;;2.07;100.00
54389;BME280;40975;50.390;8.640;2023-04-27T04:45:36;99322.47;;;1.96;100.00
54389;BME280;40975;50.390;8.640;2023-04-27T04:48:01;99332.78;;;1.99;100.00
54389;BME280;40975;50.390;8.640;2023-04-27T04:50:27;99336.72;;;2.07;100.00
54389;BME280;40975;50.390;8.640;2023-04-27T04:52:53;99335.84;;;2.06;100.00
54389;BME280;40975;50.390;8.640;2023-04-27T04:55:18;99337.75;;;2.04;100.00
54389;BME280;40975;50.390;8.640;2023-04-27T04:57:44;99336.13;;;2.01;100.00
54389;BME280;40975;50.390;8.640;2023-04-27T05:00:10;99326.53;;;1.86;100.00
54389;BME280;40975;50.390;8.640;2023-04-27T05:02:37;99347.34;;;2.04;100.00
54389;BME280;40975;50.390;8.640;2023-04-27T05:05:03;99345.75;;;2.01;100.00
54389;BME280;40975;50.390;8.640;2023-04-27T05:07:28;99342.88;;;2.06;100.00
54389;BME280;40975;50.390;8.640;2023-04-27T05:09:54;99352.00;;;2.14;100.00
54389;BME280;40975;50.390;8.640;2023-04-27T05:12:19;99350.31;;;2.13;100.00
54389;BME280;40975;50.390;8.640;2023-04-27T05:14:45;99348.00;;;2.23;100.00
54389;BME280;40975;50.390;8.640;2023-04-27T05:17:10;99350.84;;;2.35;100.00
54389;BME280;40975;50.390;8.640;2023-04-27T05:19:36;99359.75;;;2.46;100.00
54389;BME280;40975;50.390;8.640;2023-04-27T05:22:01;99364.56;;;2.54;100.00
54389;BME280;40975;50.390;8.640;2023-04-27T05:24:27;99356.28;;;2.62;100.00
54389;BME280;40975;50.390;8.640;2023-04-27T05:26:52;99369.03;;;2.83;100.00
54389;BME280;40975;50.390;8.640;2023-04-27T05:29:18;99368.75;;;3.02;100.00
54389;BME280;40975;50.390;8.640;2023-04-27T05:31:44;99354.53;;;3.06;100.00
54389;BME280;40975;50.390;8.640;2023-04-27T05:34:09;99366.84;;;3.34;100.00
54389;BME280;40975;50.390;8.640;2023-04-27T05:36:35;99377.75;;;3.55;100.00
54389;BME280;40975;50.390;8.640;2023-04-27T05:39:01;99371.47;;;3.72;100.00
54389;BME280;40975;50.390;8.640;2023-04-27T05:41:28;99371.22;;;3.90;100.00
54389;BME280;40975;50.390;8.640;2023-04-27T05:43:53;99377.63;;;4.13;100.00
54389;BME280;40975;50.390;8.640;2023-04-27T05:46:19;99374.44;;;4.35;100.00
54389;BME280;40975;50.390;8.640;2023-04-27T05:48:45;99369.91;;;4.78;100.00
54389;BME280;40975;50.390;8.640;2023-04-27T05:51:10;99370.63;;;5.44;98.33
54389;BME280;40975;50.390;8.640;2023-04-27T05:53:35;99374.03;;;5.84;94.39
54389;BME280;40975;50.390;8.640;2023-04-27T05:56:01;99372.88;;;6.61;88.99
54389;BME280;40975;50.390;8.640;2023-04-27T05:58:28;99375.97;;;7.13;86.94
54389;BME280;40975;50.390;8.640;2023-04-27T06:00:53;99376.59;;;7.73;80.75
54389;BME280;40975;50.390;8.640;2023-04-27T06:03:19;99365.63;;;8.33;72.92
54389;BME280;40975;50.390;8.640;2023-04-27T06:05:45;99370.91;;;9.08;72.08
54389;BME280;40975;50.390;8.640;2023-04-27T06:08:11;99370.91;;;9.80;69.06
54389;BME280;40975;50.390;8.640;2023-04-27T06:10:37;99400.75;;;10.33;65.00
54389;BME280;40975;50.390;8.640;2023-04-27T06:13:02;99398.13;;;10.42;63.64
54389;BME280;40975;50.390;8.640;2023-04-27T06:15:28;99393.09;;;11.36;62.17
54389;BME280;40975;50.390;8.640;2023-04-27T06:17:53;99407.09;;;11.76;60.76
54389;BME280;40975;50.390;8.640;2023-04-27T06:20:18;99408.97;;;11.65;59.57
54389;BME280;40975;50.390;8.640;2023-04-27T06:22:44;99403.97;;;10.85;61.52
54389;BME280;40975;50.390;8.640;2023-04-27T06:25:11;99400.47;;;9.75;63.02
54389;BME280;40975;50.390;8.640;2023-04-27T06:27:36;99403.72;;;8.96;67.91
54389;BME280;40975;50.390;8.640;2023-04-27T06:30:02;99400.09;;;8.32;70.85
54389;BME280;40975;50.390;8.640;2023-04-27T06:32:27;99408.38;;;7.94;73.49
54389;BME280;40975;50.390;8.640;2023-04-27T06:34:52;99408.16;;;7.75;75.06
54389;BME280;40975;50.390;8.640;2023-04-27T06:37:18;99407.78;;;7.45;76.17
54389;BME280;40975;50.390;8.640;2023-04-27T06:39:43;99419.31;;;8.01;77.39
54389;BME280;40975;50.390;8.640;2023-04-27T06:42:09;99419.84;;;8.28;74.68
54389;BME280;40975;50.390;8.640;2023-04-27T06:44:36;99429.03;;;8.45;74.22
54389;BME280;40975;50.390;8.640;2023-04-27T06:47:01;99416.22;;;9.15;70.21
54389;BME280;40975;50.390;8.640;2023-04-27T06:49:27;99403.81;;;10.28;64.95
54389;BME280;40975;50.390;8.640;2023-04-27T06:51:52;99426.72;;;11.27;62.78
54389;BME280;40975;50.390;8.640;2023-04-27T06:54:17;99434.41;;;11.58;59.82
54389;BME280;40975;50.390;8.640;2023-04-27T06:56:43;99428.38;;;11.66;60.73
54389;BME280;40975;50.390;8.640;2023-04-27T06:59:09;99429.16;;;11.86;58.69
54389;BME280;40975;50.390;8.640;2023-04-27T07:01:35;99432.41;;;12.36;56.57
54389;BME280;40975;50.390;8.640;2023-04-27T07:04:02;99439.88;;;12.86;55.03
54389;BME280;40975;50.390;8.640;2023-04-27T07:06:27;99433.38;;;12.53;56.51
54389;BME280;40975;50.390;8.640;2023-04-27T07:08:53;99441.22;;;12.36;57.98
54389;BME280;40975;50.390;8.640;2023-04-27T07:11:18;99427.41;;;11.67;59.82
54389;BME280;40975;50.390;8.640;2023-04-27T07:13:43;99428.94;;;11.22;60.61
54389;BME280;40975;50.390;8.640;2023-04-27T07:16:09;99430.91;;;11.20;59.74
54389;BME280;40975;50.390;8.640;2023-04-27T07:18:34;99436.38;;;11.66;60.02
54389;BME280;40975;50.390;8.640;2023-04-27T07:20:59;99420.50;;;11.46;59.09
54389;BME280;40975;50.390;8.640;2023-04-27T07:23:25;99429.03;;;11.78;59.92
54389;BME280;40975;50.390;8.640;2023-04-27T07:25:50;99427.53;;;12.49;59.38
54389;BME280;40975;50.390;8.640;2023-04-27T07:28:16;99425.16;;;13.00;56.19
54389;BME280;40975;50.390;8.640;2023-04-27T07:30:41;99422.81;;;13.24;55.06
54389;BME280;40975;50.390;8.640;2023-04-27T07:33:07;99426.97;;;13.71;54.33
54389;BME280;40975;50.390;8.640;2023-04-27T07:35:34;99429.84;;;13.77;52.82
54389;BME280;40975;50.390;8.640;2023-04-27T07:37:59;99428.53;;;13.90;53.57
54389;BME280;40975;50.390;8.640;2023-04-27T07:40:28;99420.38;;;13.91;51.97
54389;BME280;40975;50.390;8.640;2023-04-27T07:42:53;99425.78;;;13.73;51.41
54389;BME280;40975;50.390;8.640;2023-04-27T07:45:19;99415.38;;;13.53;53.55
54389;BME280;40975;50.390;8.640;2023-04-27T07:47:46;99418.25;;;14.03;52.43
54389;BME280;40975;50.390;8.640;2023-04-27T07:50:12;99422.19;;;14.42;52.77
54389;BME280;40975;50.390;8.640;2023-04-27T07:52:41;99423.00;;;14.34;52.34
54389;BME280;40975;50.390;8.640;2023-04-27T07:55:06;99424.06;;;13.56;51.07
54389;BME280;40975;50.390;8.640;2023-04-27T07:57:32;99431.59;;;13.68;50.72
54389;BME280;40975;50.390;8.640;2023-04-27T07:59:57;99431.88;;;13.57;52.27
54389;BME280;40975;50.390;8.640;2023-04-27T08:02:23;99419.13;;;13.43;52.99
54389;BME280;40975;50.390;8.640;2023-04-27T08:04:48;99423.94;;;13.39;54.98
54389;BME280;40975;50.390;8.640;2023-04-27T08:07:15;99421.38;;;13.90;52.30
54389;BME280;40975;50.390;8.640;2023-04-27T08:09:40;99416.63;;;13.41;51.93
54389;BME280;40975;50.390;8.640;2023-04-27T08:12:06;99411.97;;;12.99;51.57
54389;BME280;40975;50.390;8.640;2023-04-27T08:14:33;99414.13;;;13.40;50.18
54389;BME280;40975;50.390;8.640;2023-04-27T08:16:59;99407.56;;;14.79;50.36
54389;BME280;40975;50.390;8.640;2023-04-27T08:19:24;99408.56;;;15.67;45.85
54389;BME280;40975;50.390;8.640;2023-04-27T08:21:49;99426.88;;;17.05;45.39
54389;BME280;40975;50.390;8.640;2023-04-27T08:24:15;99420.81;;;18.16;40.18
54389;BME280;40975;50.390;8.640;2023-04-27T08:26:40;99412.56;;;18.98;39.01
54389;BME280;40975;50.390;8.640;2023-04-27T08:29:06;99415.16;;;18.69;37.77
54389;BME280;40975;50.390;8.640;2023-04-27T08:31:31;99414.31;;;19.12;36.96
54389;BME280;40975;50.390;8.640;2023-04-27T08:33:56;99421.19;;;19.15;37.42
54389;BME280;40975;50.390;8.640;2023-04-27T08:36:23;99420.41;;;19.91;36.09
54389;BME280;40975;50.390;8.640;2023-04-27T08:38:52;99419.47;;;19.70;36.32
54389;BME280;40975;50.390;8.640;2023-04-27T08:41:21;99417.47;;;20.34;35.69
54389;BME280;40975;50.390;8.640;2023-04-27T08:43:47;99421.53;;;21.06;33.43
54389;BME280;40975;50.390;8.640;2023-04-27T08:46:21;99421.75;;;20.84;34.40
54389;BME280;40975;50.390;8.640;2023-04-27T08:48:50;99421.09;;;21.22;34.07
54389;BME280;40975;50.390;8.640;2023-04-27T08:51:16;99430.22;;;21.35;33.31
54389;BME280;40975;50.390;8.640;2023-04-27T08:53:53;99421.50;;;21.39;33.89
54389;BME280;40975;50.390;8.640;2023-04-27T08:56:19;99420.38;;;22.33;33.42
54389;BME280;40975;50.390;8.640;2023-04-27T08:58:48;99409.88;;;21.59;32.28
54389;BME280;40975;50.390;8.640;2023-04-27T09:01:13;99421.81;;;22.35;31.97
54389;BME280;40975;50.390;8.640;2023-04-27T09:03:38;99410.53;;;22.00;32.57
54389;BME280;40975;50.390;8.640;2023-04-27T09:06:04;99415.25;;;22.18;32.67
54389;BME280;40975;50.390;8.640;2023-04-27T09:08:41;99411.66;;;22.70;33.35
54389;BME280;40975;50.390;8.640;2023-04-27T09:11:06;99410.03;;;22.62;32.61
54389;BME280;40975;50.390;8.640;2023-04-27T09:13:36;99410.63;;;23.21;31.63
54389;BME280;40975;50.390;8.640;2023-04-27T09:16:02;99413.44;;;23.08;30.09
54389;BME280;40975;50.390;8.640;2023-04-27T09:18:27;99407.41;;;23.31;30.45
54389;BME280;40975;50.390;8.640;2023-04-27T09:20:53;99400.66;;;23.15;28.15
54389;BME280;40975;50.390;8.640;2023-04-27T09:25:50;99403.44;;;23.34;31.34
54389;BME280;40975;50.390;8.640;2023-04-27T09:28:15;99404.69;;;23.06;30.23
54389;BME280;40975;50.390;8.640;2023-04-27T09:30:50;99397.81;;;23.10;31.73
54389;BME280;40975;50.390;8.640;2023-04-27T09:33:21;99404.53;;;22.75;30.91
54389;BME280;40975;50.390;8.640;2023-04-27T09:35:47;99397.25;;;22.76;29.80
54389;BME280;40975;50.390;8.640;2023-04-27T09:38:13;99400.19;;;23.00;31.98
54389;BME280;40975;50.390;8.640;2023-04-27T09:40:39;99400.19;;;23.00;30.35
54389;BME280;40975;50.390;8.640;2023-04-27T09:43:05;99406.59;;;23.86;31.31
54389;BME280;40975;50.390;8.640;2023-04-27T09:45:32;99399.50;;;24.22;30.18
54389;BME280;40975;50.390;8.640;2023-04-27T09:47:57;99402.13;;;24.60;30.90
54389;BME280;40975;50.390;8.640;2023-04-27T09:50:24;99396.66;;;24.17;29.62
54389;BME280;40975;50.390;8.640;2023-04-27T09:52:50;99383.84;;;24.25;29.80
54389;BME280;40975;50.390;8.640;2023-04-27T09:55:20;99377.00;;;24.64;27.41
54389;BME280;40975;50.390;8.640;2023-04-27T09:58:08;99370.72;;;23.72;27.40
54389;BME280;40975;50.390;8.640;2023-04-27T10:00:59;99374.78;;;23.63;27.97
54389;BME280;40975;50.390;8.640;2023-04-27T10:03:32;99389.09;;;24.80;30.05
54389;BME280;40975;50.390;8.640;2023-04-27T10:08:51;99378.69;;;24.77;26.62
54389;BME280;40975;50.390;8.640;2023-04-27T10:11:17;99380.28;;;24.66;28.63
54389;BME280;40975;50.390;8.640;2023-04-27T10:13:53;99359.41;;;23.94;29.62
54389;BME280;40975;50.390;8.640;2023-04-27T10:16:19;99361.78;;;24.21;29.51
54389;BME280;40975;50.390;8.640;2023-04-27T10:18:53;99369.06;;;24.51;29.79
54389;BME280;40975;50.390;8.640;2023-04-27T10:21:19;99367.28;;;23.65;29.50
54389;BME280;40975;50.390;8.640;2023-04-27T10:23:49;99378.91;;;24.03;30.79
54389;BME280;40975;50.390;8.640;2023-04-27T10:26:22;99361.91;;;23.77;28.98
54389;BME280;40975;50.390;8.640;2023-04-27T10:31:28;99366.75;;;23.12;29.30
54389;BME280;40975;50.390;8.640;2023-04-27T10:34:15;99365.47;;;22.32;28.54
54389;BME280;40975;50.390;8.640;2023-04-27T10:36:40;99358.63;;;21.91;30.88
54389;BME280;40975;50.390;8.640;2023-04-27T10:39:21;99356.44;;;22.13;31.91
54389;BME280;40975;50.390;8.640;2023-04-27T10:41:53;99357.91;;;21.57;31.55
54389;BME280;40975;50.390;8.640;2023-04-27T10:44:24;99354.97;;;19.97;33.22
54389;BME280;40975;50.390;8.640;2023-04-27T10:46:52;99350.19;;;19.93;33.58
54389;BME280;40975;50.390;8.640;2023-04-27T10:49:18;99335.47;;;19.40;34.56
54389;BME280;40975;50.390;8.640;2023-04-27T10:51:44;99338.75;;;18.57;35.80
54389;BME280;40975;50.390;8.640;2023-04-27T10:54:10;99351.94;;;19.72;39.07
54389;BME280;40975;50.390;8.640;2023-04-27T10:56:36;99347.63;;;19.71;37.90
54389;BME280;40975;50.390;8.640;2023-04-27T10:59:02;99346.72;;;19.64;36.43
54389;BME280;40975;50.390;8.640;2023-04-27T11:01:28;99343.06;;;19.78;34.02
54389;BME280;40975;50.390;8.640;2023-04-27T11:03:58;99347.94;;;20.03;36.02
54389;BME280;40975;50.390;8.640;2023-04-27T11:06:23;99335.31;;;19.62;37.43
54389;BME280;40975;50.390;8.640;2023-04-27T11:08:49;99334.28;;;20.18;36.01
54389;BME280;40975;50.390;8.640;2023-04-27T11:11:14;99329.78;;;19.28;37.89
54389;BME280;40975;50.390;8.640;2023-04-27T11:13:42;99321.75;;;19.00;38.27
54389;BME280;40975;50.390;8.640;2023-04-27T11:16:08;99310.03;;;18.57;38.43
54389;BME280;40975;50.390;8.640;2023-04-27T11:18:36;99323.63;;;19.34;41.82
54389;BME280;40975;50.390;8.640;2023-04-27T11:21:09;99322.94;;;19.61;36.69
54389;BME280;40975;50.390;8.640;2023-04-27T11:23:35;99313.50;;;19.43;36.08
54389;BME280;40975;50.390;8.640;2023-04-27T11:26:13;99310.94;;;19.21;37.28
54389;BME280;40975;50.390;8.640;2023-04-27T11:28:43;99318.91;;;19.08;39.44
54389;BME280;40975;50.390;8.640;2023-04-27T11:31:09;99316.50;;;19.20;39.96
54389;BME280;40975;50.390;8.640;2023-04-27T11:33:35;99321.13;;;18.98;39.91
54389;BME280;40975;50.390;8.640;2023-04-27T11:36:00;99316.56;;;18.98;40.91
54389;BME280;40975;50.390;8.640;2023-04-27T11:38:32;99315.47;;;17.84;37.42
54389;BME280;40975;50.390;8.640;2023-04-27T11:41:03;99311.53;;;17.80;38.62
54389;BME280;40975;50.390;8.640;2023-04-27T11:43:28;99302.91;;;17.99;37.28
54389;BME280;40975;50.390;8.640;2023-04-27T11:45:54;99305.78;;;18.20;39.45
54389;BME280;40975;50.390;8.640;2023-04-27T11:48:22;99302.84;;;18.14;38.18
54389;BME280;40975;50.390;8.640;2023-04-27T11:50:48;99296.69;;;18.21;37.10
54389;BME280;40975;50.390;8.640;2023-04-27T11:53:14;99302.50;;;18.24;39.37
54389;BME280;40975;50.390;8.640;2023-04-27T11:55:40;99292.38;;;18.48;40.30
54389;BME280;40975;50.390;8.640;2023-04-27T11:58:12;99291.28;;;18.64;41.43
54389;BME280;40975;50.390;8.640;2023-04-27T12:00:38;99288.34;;;18.37;38.22
54389;BME280;40975;50.390;8.640;2023-04-27T12:03:03;99294.53;;;18.88;37.83
54389;BME280;40975;50.390;8.640;2023-04-27T12:05:28;99288.75;;;18.12;37.05
54389;BME280;40975;50.390;8.640;2023-04-27T12:07:54;99294.78;;;18.36;38.63
54389;BME280;40975;50.390;8.640;2023-04-27T12:10:19;99287.56;;;18.65;40.18
54389;BME280;40975;50.390;8.640;2023-04-27T12:12:44;99291.22;;;18.57;38.83
54389;BME280;40975;50.390;8.640;2023-04-27T12:15:10;99289.50;;;17.84;37.88
54389;BME280;40975;50.390;8.640;2023-04-27T12:17:37;99292.59;;;18.25;39.01
54389;BME280;40975;50.390;8.640;2023-04-27T12:20:03;99285.03;;;17.40;37.67
54389;BME280;40975;50.390;8.640;2023-04-27T12:22:28;99283.75;;;17.72;39.95
54389;BME280;40975;50.390;8.640;2023-04-27T12:24:54;99284.03;;;17.26;39.17
54389;BME280;40975;50.390;8.640;2023-04-27T12:27:20;99279.28;;;16.30;40.17
54389;BME280;40975;50.390;8.640;2023-04-27T12:29:45;99283.38;;;15.94;40.51
54389;BME280;40975;50.390;8.640;2023-04-27T12:32:10;99280.78;;;16.47;41.58
54389;BME280;40975;50.390;8.640;2023-04-27T12:34:36;99280.88;;;16.92;42.89
54389;BME280;40975;50.390;8.640;2023-04-27T12:37:03;99265.25;;;17.11;43.39
54389;BME280;40975;50.390;8.640;2023-04-27T12:39:28;99265.97;;;16.75;39.61
54389;BME280;40975;50.390;8.640;2023-04-27T12:41:54;99257.34;;;16.50;40.54
54389;BME280;40975;50.390;8.640;2023-04-27T12:44:20;99270.03;;;16.71;40.63
54389;BME280;40975;50.390;8.640;2023-04-27T12:46:45;99254.44;;;17.04;41.83
54389;BME280;40975;50.390;8.640;2023-04-27T12:49:12;99255.63;;;16.72;41.14
54389;BME280;40975;50.390;8.640;2023-04-27T12:51:37;99260.00;;;16.35;41.04
54389;BME280;40975;50.390;8.640;2023-04-27T12:54:03;99267.00;;;16.89;43.51
54389;BME280;40975;50.390;8.640;2023-04-27T12:56:29;99258.50;;;17.30;43.07
54389;BME280;40975;50.390;8.640;2023-04-27T12:58:55;99260.31;;;17.45;41.21
54389;BME280;40975;50.390;8.640;2023-04-27T13:01:21;99254.28;;;17.21;40.19
54389;BME280;40975;50.390;8.640;2023-04-27T13:03:51;99252.78;;;17.18;40.64